createdAt,value
2017-04-07T00:00:10.122Z,10.07
2017-04-07T00:01:09.984Z,10.04
2017-04-07T00:02:10.261Z,10.04
2017-04-07T00:03:09.645Z,10.03
2017-04-07T00:04:10.271Z,10.01
2017-04-07T00:05:10.343Z,9.92
2017-04-07T00:06:10.192Z,9.93
2017-04-07T00:07:10.272Z,10.01
2017-04-07T00:08:09.938Z,10.13
2017-04-07T00:09:09.812Z,10.13
2017-04-07T00:10:10.113Z,10.11
2017-04-07T00:11:09.905Z,10.13
2017-04-07T00:12:10.138Z,10.11
2017-04-07T00:13:09.751Z,10.05
2017-04-07T00:14:09.823Z,10.13
2017-04-07T00:15:09.782Z,10.03
2017-04-07T00:16:09.994Z,10.11
2017-04-07T00:17:09.671Z,10.11
2017-04-07T00:18:09.930Z,9.97
2017-04-07T00:19:09.612Z,9.92
2017-04-07T00:20:09.347Z,9.87
2017-04-07T00:21:09.881Z,9.89
2017-04-07T00:22:09.863Z,9.87
2017-04-07T00:23:09.834Z,9.72
2017-04-07T00:24:09.944Z,9.72
2017-04-07T00:25:09.876Z,9.72
2017-04-07T00:26:09.765Z,9.74
2017-04-07T00:27:09.844Z,9.53
2017-04-07T00:28:09.111Z,9.46
2017-04-07T00:29:09.392Z,9.37
2017-04-07T00:30:09.376Z,9.37
2017-04-07T00:31:09.364Z,9.43
2017-04-07T00:32:09.634Z,9.49
2017-04-07T00:33:09.326Z,9.49
2017-04-07T00:34:09.601Z,9.37
2017-04-07T00:35:08.951Z,9.31
2017-04-07T00:36:09.245Z,9.17
2017-04-07T00:37:09.534Z,9.11
2017-04-07T00:38:09.212Z,9.06
2017-04-07T00:39:09.242Z,9.14
2017-04-07T00:40:09.477Z,9.14
2017-04-07T00:41:09.456Z,8.98
2017-04-07T00:42:09.435Z,8.94
2017-04-07T00:43:09.406Z,9.06
2017-04-07T00:44:09.383Z,9.06
2017-04-07T00:45:09.367Z,9.17
2017-04-07T00:46:09.033Z,9.29
2017-04-07T00:47:09.323Z,9.25
2017-04-07T00:48:08.992Z,9.31
2017-04-07T00:49:09.279Z,9.38
2017-04-07T00:50:08.962Z,9.37
2017-04-07T00:51:08.631Z,9.4
2017-04-07T00:52:08.903Z,9.42
2017-04-07T00:53:08.884Z,9.43
2017-04-07T00:54:08.559Z,9.42
2017-04-07T00:55:09.145Z,9.45
2017-04-07T00:56:09.129Z,9.46
2017-04-07T00:57:08.809Z,9.42
2017-04-07T00:58:08.474Z,9.34
2017-04-07T00:59:09.071Z,9.35
2017-04-07T01:00:08.435Z,9.32
2017-04-07T01:01:09.025Z,9.31
2017-04-07T01:02:08.716Z,9.24
2017-04-07T01:03:08.352Z,9.29
2017-04-07T01:04:08.952Z,9.27
2017-04-07T01:05:08.642Z,9.38
2017-04-07T01:06:08.606Z,9.29
2017-04-07T01:07:08.904Z,9.32
2017-04-07T01:08:08.908Z,9.29
2017-04-07T01:09:08.852Z,9.31
2017-04-07T01:10:08.833Z,9.28
2017-04-07T01:11:08.498Z,9.43
2017-04-07T01:12:08.794Z,9.4
2017-04-07T01:13:08.766Z,9.4
2017-04-07T01:14:08.430Z,9.42
2017-04-07T01:15:08.414Z,9.37
2017-04-07T01:16:08.088Z,9.37
2017-04-07T01:17:08.676Z,9.37
2017-04-07T01:18:08.360Z,9.38
2017-04-07T01:19:08.632Z,9.34
2017-04-07T01:20:08.612Z,9.42
2017-04-07T01:21:07.985Z,9.38
2017-04-07T01:22:08.563Z,9.38
2017-04-07T01:23:08.554Z,9.32
2017-04-07T01:24:07.929Z,9.32
2017-04-07T01:25:08.507Z,9.29
2017-04-07T01:26:08.491Z,9.32
2017-04-07T01:27:08.473Z,9.34
2017-04-07T01:28:07.953Z,9.13
2017-04-07T01:29:08.126Z,9.09
2017-04-07T01:30:08.212Z,9.16
2017-04-07T01:31:08.392Z,9.21
2017-04-07T01:32:07.742Z,9.1
2017-04-07T01:33:08.345Z,9.1
2017-04-07T01:34:08.303Z,9.17
2017-04-07T01:35:08.293Z,9.1
2017-04-07T01:36:08.015Z,9.1
2017-04-07T01:37:07.943Z,9.11
2017-04-07T01:38:07.933Z,9.13
2017-04-07T01:39:08.199Z,9.11
2017-04-07T01:40:08.180Z,9.19
2017-04-07T01:41:07.852Z,9.1
2017-04-07T01:42:07.823Z,9.1
2017-04-07T01:43:07.532Z,9
2017-04-07T01:44:08.092Z,9.05
2017-04-07T01:45:08.095Z,9.1
2017-04-07T01:46:08.052Z,9.13
2017-04-07T01:47:08.045Z,9.11
2017-04-07T01:48:07.702Z,9.11
2017-04-07T01:49:07.696Z,9.1
2017-04-07T01:50:07.975Z,9.16
2017-04-07T01:51:07.654Z,9.13
2017-04-07T01:52:07.461Z,9.17
2017-04-07T01:53:07.924Z,9.21
2017-04-07T01:54:07.890Z,9.24
2017-04-07T01:55:07.862Z,9.13
2017-04-07T01:56:07.832Z,9.19
2017-04-07T01:57:07.512Z,9.21
2017-04-07T01:58:07.803Z,9.28
2017-04-07T01:59:07.834Z,9.17
2017-04-07T02:00:07.751Z,9.27
2017-04-07T02:01:07.434Z,9.37
2017-04-07T02:02:07.405Z,9.31
2017-04-07T02:03:07.724Z,9.37
2017-04-07T02:04:07.373Z,9.35
2017-04-07T02:05:07.643Z,9.4
2017-04-07T02:06:07.638Z,9.34
2017-04-07T02:07:07.612Z,9.47
2017-04-07T02:08:07.273Z,9.37
2017-04-07T02:09:06.942Z,9.38
2017-04-07T02:10:07.241Z,9.31
2017-04-07T02:11:07.528Z,9.35
2017-04-07T02:12:07.496Z,9.32
2017-04-07T02:13:07.524Z,9.4
2017-04-07T02:14:07.462Z,9.38
2017-04-07T02:15:07.120Z,9.45
2017-04-07T02:16:07.105Z,9.47
2017-04-07T02:17:07.090Z,9.32
2017-04-07T02:18:07.061Z,9.37
2017-04-07T02:19:07.350Z,9.42
2017-04-07T02:20:07.327Z,9.35
2017-04-07T02:21:07.003Z,9.35
2017-04-07T02:22:07.283Z,9.42
2017-04-07T02:23:07.262Z,9.42
2017-04-07T02:24:06.942Z,9.35
2017-04-07T02:25:06.913Z,9.37
2017-04-07T02:26:06.591Z,9.31
2017-04-07T02:27:06.863Z,9.14
2017-04-07T02:28:07.151Z,9.09
2017-04-07T02:29:06.822Z,9.1
2017-04-07T02:30:07.114Z,9.19
2017-04-07T02:31:07.093Z,9.17
2017-04-07T02:32:07.074Z,9.17
2017-04-07T02:33:06.742Z,9.24
2017-04-07T02:34:06.720Z,9.28
2017-04-07T02:35:06.703Z,9.29
2017-04-07T02:36:06.978Z,9.38
2017-04-07T02:37:06.964Z,9.47
2017-04-07T02:38:06.936Z,9.5
2017-04-07T02:39:06.932Z,9.34
2017-04-07T02:40:06.292Z,9.34
2017-04-07T02:41:06.583Z,9.29
2017-04-07T02:42:06.548Z,9.35
2017-04-07T02:43:06.842Z,9.35
2017-04-07T02:44:06.810Z,9.32
2017-04-07T02:45:06.533Z,9.42
2017-04-07T02:46:06.162Z,9.47
2017-04-07T02:47:06.451Z,9.52
2017-04-07T02:48:06.734Z,9.6
2017-04-07T02:49:06.730Z,9.53
2017-04-07T02:50:06.082Z,9.54
2017-04-07T02:51:06.412Z,9.46
2017-04-07T02:52:06.639Z,9.47
2017-04-07T02:53:06.642Z,9.49
2017-04-07T02:54:06.292Z,9.46
2017-04-07T02:55:06.696Z,9.5
2017-04-07T02:56:06.553Z,9.43
2017-04-07T02:57:06.568Z,9.46
2017-04-07T02:58:06.212Z,9.43
2017-04-07T02:59:06.591Z,9.31
2017-04-07T03:00:06.162Z,9.37
2017-04-07T03:01:06.556Z,9.42
2017-04-07T03:02:06.123Z,9.46
2017-04-07T03:03:06.504Z,9.46
2017-04-07T03:04:06.418Z,9.43
2017-04-07T03:05:06.411Z,9.43
2017-04-07T03:06:06.408Z,9.45
2017-04-07T03:07:06.442Z,9.56
2017-04-07T03:08:06.055Z,9.64
2017-04-07T03:09:05.980Z,9.65
2017-04-07T03:10:06.362Z,9.65
2017-04-07T03:11:06.042Z,9.78
2017-04-07T03:12:06.254Z,9.68
2017-04-07T03:13:06.241Z,9.71
2017-04-07T03:14:06.265Z,9.71
2017-04-07T03:15:06.252Z,9.62
2017-04-07T03:16:05.864Z,9.67
2017-04-07T03:17:06.173Z,9.65
2017-04-07T03:18:06.121Z,9.71
2017-04-07T03:19:05.822Z,9.62
2017-04-07T03:20:05.740Z,9.6
2017-04-07T03:21:05.720Z,9.52
2017-04-07T03:22:06.019Z,9.42
2017-04-07T03:23:06.029Z,9.45
2017-04-07T03:24:05.651Z,9.46
2017-04-07T03:25:05.936Z,9.47
2017-04-07T03:26:05.318Z,9.46
2017-04-07T03:27:05.606Z,9.52
2017-04-07T03:28:05.922Z,9.62
2017-04-07T03:29:05.564Z,9.6
2017-04-07T03:30:05.955Z,9.46
2017-04-07T03:31:05.809Z,9.49
2017-04-07T03:32:05.499Z,9.43
2017-04-07T03:33:05.469Z,9.54
2017-04-07T03:34:05.510Z,9.61
2017-04-07T03:35:05.122Z,9.54
2017-04-07T03:36:05.861Z,9.6
2017-04-07T03:37:05.688Z,9.61
2017-04-07T03:38:05.441Z,9.68
2017-04-07T03:39:05.331Z,9.65
2017-04-07T03:40:05.622Z,9.61
2017-04-07T03:41:05.614Z,9.52
2017-04-07T03:42:05.278Z,9.64
2017-04-07T03:43:05.255Z,9.71
2017-04-07T03:44:05.561Z,9.71
2017-04-07T03:45:05.220Z,9.71
2017-04-07T03:46:05.193Z,9.65
2017-04-07T03:47:05.167Z,9.67
2017-04-07T03:48:05.142Z,9.72
2017-04-07T03:49:05.443Z,9.72
2017-04-07T03:50:05.413Z,9.5
2017-04-07T03:51:05.401Z,9.58
2017-04-07T03:52:05.372Z,9.61
2017-04-07T03:53:05.046Z,9.53
2017-04-07T03:54:05.322Z,9.52
2017-04-07T03:55:05.301Z,9.6
2017-04-07T03:56:05.282Z,9.64
2017-04-07T03:57:05.267Z,9.71
2017-04-07T03:58:04.932Z,9.68
2017-04-07T03:59:05.242Z,9.72
2017-04-07T04:00:05.203Z,9.7
2017-04-07T04:01:05.174Z,9.7
2017-04-07T04:02:05.152Z,9.67
2017-04-07T04:03:04.522Z,9.52
2017-04-07T04:04:05.126Z,9.56
2017-04-07T04:05:05.092Z,9.43
2017-04-07T04:06:05.082Z,9.53
2017-04-07T04:07:05.062Z,9.56
2017-04-07T04:08:05.046Z,9.52
2017-04-07T04:09:04.399Z,9.45
2017-04-07T04:10:04.991Z,9.52
2017-04-07T04:11:04.982Z,9.64
2017-04-07T04:12:04.950Z,9.7
2017-04-07T04:13:04.612Z,9.79
2017-04-07T04:14:04.910Z,9.68
2017-04-07T04:15:04.892Z,9.78
2017-04-07T04:16:04.561Z,9.74
2017-04-07T04:17:04.849Z,9.71
2017-04-07T04:18:04.513Z,9.49
2017-04-07T04:19:04.542Z,9.35
2017-04-07T04:20:04.169Z,9.31
2017-04-07T04:21:04.506Z,9.35
2017-04-07T04:22:04.732Z,9.47
2017-04-07T04:23:04.710Z,9.54
2017-04-07T04:24:04.688Z,9.56
2017-04-07T04:25:04.672Z,9.53
2017-04-07T04:26:04.654Z,9.45
2017-04-07T04:27:04.372Z,9.54
2017-04-07T04:28:04.302Z,9.56
2017-04-07T04:29:04.582Z,9.56
2017-04-07T04:30:04.582Z,9.62
2017-04-07T04:31:04.538Z,9.53
2017-04-07T04:32:03.909Z,9.45
2017-04-07T04:33:03.955Z,9.45
2017-04-07T04:34:04.183Z,9.46
2017-04-07T04:35:04.462Z,9.53
2017-04-07T04:36:04.137Z,9.56
2017-04-07T04:37:04.112Z,9.47
2017-04-07T04:38:04.080Z,9.49
2017-04-07T04:39:04.119Z,9.64
2017-04-07T04:40:04.042Z,9.67
2017-04-07T04:41:04.121Z,9.71
2017-04-07T04:42:04.341Z,9.72
2017-04-07T04:43:04.291Z,9.62
2017-04-07T04:44:04.271Z,9.6
2017-04-07T04:45:04.242Z,9.68
2017-04-07T04:46:03.921Z,9.8
2017-04-07T04:47:03.943Z,9.53
2017-04-07T04:48:03.931Z,9.53
2017-04-07T04:49:03.643Z,9.58
2017-04-07T04:50:04.132Z,9.56
2017-04-07T04:51:04.121Z,9.37
2017-04-07T04:52:04.102Z,9.43
2017-04-07T04:53:04.083Z,9.5
2017-04-07T04:54:04.059Z,9.52
2017-04-07T04:55:04.030Z,9.5
2017-04-07T04:56:03.754Z,9.65
2017-04-07T04:57:03.997Z,9.61
2017-04-07T04:58:03.752Z,9.78
2017-04-07T04:59:03.940Z,9.75
2017-04-07T05:00:03.932Z,9.72
2017-04-07T05:01:03.921Z,9.71
2017-04-07T05:02:03.880Z,9.65
2017-04-07T05:03:03.581Z,9.67
2017-04-07T05:04:03.846Z,9.61
2017-04-07T05:05:03.534Z,9.64
2017-04-07T05:06:03.497Z,9.62
2017-04-07T05:07:03.814Z,9.65
2017-04-07T05:08:03.773Z,9.6
2017-04-07T05:09:03.139Z,9.65
2017-04-07T05:10:03.418Z,9.67
2017-04-07T05:11:03.703Z,9.64
2017-04-07T05:12:03.670Z,9.72
2017-04-07T05:13:03.671Z,9.61
2017-04-07T05:14:03.032Z,9.65
2017-04-07T05:15:03.310Z,9.68
2017-04-07T05:16:03.590Z,9.75
2017-04-07T05:17:03.591Z,9.68
2017-04-07T05:18:03.549Z,9.79
2017-04-07T05:19:03.521Z,9.72
2017-04-07T05:20:03.503Z,9.61
2017-04-07T05:21:03.170Z,9.61
2017-04-07T05:22:03.159Z,9.67
2017-04-07T05:23:03.133Z,9.7
2017-04-07T05:24:03.133Z,9.71
2017-04-07T05:25:03.116Z,9.65
2017-04-07T05:26:03.080Z,9.85
2017-04-07T05:27:02.741Z,9.86
2017-04-07T05:28:03.355Z,9.83
2017-04-07T05:29:03.326Z,9.97
2017-04-07T05:30:02.994Z,9.92
2017-04-07T05:31:02.960Z,9.98
2017-04-07T05:32:02.951Z,9.82
2017-04-07T05:33:02.938Z,9.9
2017-04-07T05:34:02.903Z,9.89
2017-04-07T05:35:02.882Z,9.97
2017-04-07T05:36:02.872Z,9.92
2017-04-07T05:37:02.545Z,9.9
2017-04-07T05:38:03.121Z,9.9
2017-04-07T05:39:02.506Z,10.03
2017-04-07T05:40:02.779Z,9.9
2017-04-07T05:41:02.764Z,10.07
2017-04-07T05:42:02.739Z,10.05
2017-04-07T05:43:02.421Z,10.07
2017-04-07T05:44:03.026Z,10.16
2017-04-07T05:45:02.992Z,10.1
2017-04-07T05:46:02.662Z,10.07
2017-04-07T05:47:02.946Z,10.19
2017-04-07T05:48:02.616Z,10.11
2017-04-07T05:49:02.904Z,10.05
2017-04-07T05:50:02.871Z,10.15
2017-04-07T05:51:02.853Z,10.21
2017-04-07T05:52:02.526Z,10.15
2017-04-07T05:53:02.814Z,10.19
2017-04-07T05:54:02.790Z,10.18
2017-04-07T05:55:02.762Z,10.26
2017-04-07T05:56:02.767Z,10.26
2017-04-07T05:57:02.735Z,10.13
2017-04-07T05:58:02.713Z,9.97
2017-04-07T05:59:02.694Z,9.82
2017-04-07T06:00:02.670Z,9.87
2017-04-07T06:01:02.656Z,9.82
2017-04-07T06:02:02.642Z,9.9
2017-04-07T06:03:02.046Z,10.01
2017-04-07T06:04:02.604Z,10.1
2017-04-07T06:05:02.575Z,10.05
2017-04-07T06:06:02.627Z,10.16
2017-04-07T06:07:02.521Z,10.16
2017-04-07T06:08:02.203Z,10.25
2017-04-07T06:09:02.241Z,10.22
2017-04-07T06:10:02.154Z,10.28
2017-04-07T06:11:02.477Z,10.34
2017-04-07T06:12:02.419Z,10.37
2017-04-07T06:13:02.413Z,10.4
2017-04-07T06:14:02.079Z,10.25
2017-04-07T06:15:02.352Z,10.3
2017-04-07T06:16:02.040Z,10.25
2017-04-07T06:17:02.321Z,10.25
2017-04-07T06:18:02.293Z,10.25
2017-04-07T06:19:01.967Z,10.26
2017-04-07T06:20:02.264Z,10.23
2017-04-07T06:21:02.243Z,10.07
2017-04-07T06:22:02.262Z,10.23
2017-04-07T06:23:01.892Z,10.15
2017-04-07T06:24:02.171Z,10.33
2017-04-07T06:25:02.173Z,10.3
2017-04-07T06:26:02.133Z,10.25
2017-04-07T06:27:02.112Z,10.3
2017-04-07T06:28:02.083Z,10.36
2017-04-07T06:29:01.487Z,10.4
2017-04-07T06:30:02.156Z,10.52
2017-04-07T06:31:02.022Z,10.4
2017-04-07T06:32:02.080Z,10.56
2017-04-07T06:33:01.441Z,10.53
2017-04-07T06:34:01.661Z,10.52
2017-04-07T06:35:01.938Z,10.47
2017-04-07T06:36:01.612Z,10.55
2017-04-07T06:37:01.602Z,10.53
2017-04-07T06:38:01.266Z,10.4
2017-04-07T06:39:01.254Z,10.44
2017-04-07T06:40:01.841Z,10.38
2017-04-07T06:41:01.519Z,10.44
2017-04-07T06:42:01.511Z,10.53
2017-04-07T06:43:01.493Z,10.56
2017-04-07T06:44:01.454Z,10.6
2017-04-07T06:45:01.488Z,10.66
2017-04-07T06:46:01.775Z,10.71
2017-04-07T06:47:01.700Z,10.63
2017-04-07T06:48:01.681Z,10.57
2017-04-07T06:49:01.363Z,10.59
2017-04-07T06:50:01.643Z,10.69
2017-04-07T06:51:01.723Z,10.69
2017-04-07T06:52:01.603Z,10.69
2017-04-07T06:53:01.262Z,10.69
2017-04-07T06:54:01.253Z,10.81
2017-04-07T06:55:01.561Z,10.57
2017-04-07T06:56:01.633Z,10.55
2017-04-07T06:57:01.501Z,10.63
2017-04-07T06:58:01.182Z,10.74
2017-04-07T06:59:01.179Z,10.71
2017-04-07T07:00:00.822Z,10.72
2017-04-07T07:01:01.115Z,10.67
2017-04-07T07:02:01.102Z,10.67
2017-04-07T07:03:01.375Z,10.74
2017-04-07T07:04:01.042Z,10.74
2017-04-07T07:05:01.342Z,10.74
2017-04-07T07:06:01.004Z,10.77
2017-04-07T07:07:00.989Z,10.95
2017-04-07T07:08:00.652Z,10.93
2017-04-07T07:09:01.261Z,10.96
2017-04-07T07:10:01.242Z,10.92
2017-04-07T07:11:00.910Z,10.89
2017-04-07T07:12:01.191Z,10.99
2017-04-07T07:13:01.190Z,10.93
2017-04-07T07:14:00.842Z,10.98
2017-04-07T07:15:01.122Z,10.89
2017-04-07T07:16:01.118Z,10.89
2017-04-07T07:17:01.101Z,10.75
2017-04-07T07:18:00.461Z,10.77
2017-04-07T07:19:00.745Z,10.82
2017-04-07T07:20:01.046Z,10.85
2017-04-07T07:21:00.702Z,10.89
2017-04-07T07:22:01.033Z,10.89
2017-04-07T07:23:00.972Z,10.84
2017-04-07T07:24:01.012Z,10.98
2017-04-07T07:25:00.652Z,10.98
2017-04-07T07:26:00.447Z,11.03
2017-04-07T07:27:00.283Z,11.03
2017-04-07T07:28:00.616Z,11.17
2017-04-07T07:29:00.551Z,11.15
2017-04-07T07:30:00.273Z,11.08
2017-04-07T07:31:00.813Z,11.06
2017-04-07T07:32:00.243Z,11.17
2017-04-07T07:33:00.769Z,11.13
2017-04-07T07:34:00.771Z,11.17
2017-04-07T07:35:00.429Z,11.11
2017-04-07T07:36:00.207Z,11.06
2017-04-07T07:37:00.707Z,11.02
2017-04-07T07:38:00.474Z,10.96
2017-04-07T07:39:00.651Z,10.85
2017-04-07T07:40:00.343Z,10.87
2017-04-07T07:41:00.623Z,10.82
2017-04-07T07:42:00.283Z,10.92
2017-04-07T07:43:00.325Z,10.87
2017-04-07T07:44:00.549Z,11.05
2017-04-07T07:45:00.615Z,11
2017-04-07T07:46:00.310Z,11
2017-04-07T07:47:00.253Z,11.05
2017-04-07T07:48:00.594Z,11.02
2017-04-07T07:49:00.471Z,11.03
2017-04-07T07:50:00.177Z,11.15
2017-04-07T07:51:00.219Z,11.14
2017-04-07T07:52:00.453Z,11.21
2017-04-07T07:53:00.414Z,11.23
2017-04-07T07:54:00.414Z,11.36
2017-04-07T07:55:00.342Z,11.42
2017-04-07T07:56:00.158Z,11.43
2017-04-07T07:57:00.358Z,11.35
2017-04-07T07:58:00.296Z,11.35
2017-04-07T07:59:00.304Z,11.35
2017-04-07T08:00:00.262Z,11.48
2017-04-07T08:01:00.227Z,11.42
2017-04-07T08:01:59.932Z,11.33
2017-04-07T08:03:00.310Z,11.33
2017-04-07T08:04:00.223Z,11.46
2017-04-07T08:05:00.235Z,11.51
2017-04-07T08:06:00.167Z,11.56
2017-04-07T08:07:00.166Z,11.6
2017-04-07T08:07:59.762Z,11.75
2017-04-07T08:09:00.156Z,11.81
2017-04-07T08:09:59.723Z,11.81
2017-04-07T08:11:00.022Z,11.86
2017-04-07T08:11:59.382Z,11.83
2017-04-07T08:12:59.761Z,11.83
2017-04-07T08:13:59.652Z,11.86
2017-04-07T08:14:59.660Z,11.81
2017-04-07T08:15:59.612Z,11.78
2017-04-07T08:16:59.942Z,11.81
2017-04-07T08:17:59.892Z,11.69
2017-04-07T08:18:59.664Z,11.84
2017-04-07T08:19:59.854Z,11.79
2017-04-07T08:20:59.836Z,11.84
2017-04-07T08:21:59.494Z,11.98
2017-04-07T08:22:59.832Z,11.91
2017-04-07T08:23:59.465Z,11.97
2017-04-07T08:24:59.812Z,11.84
2017-04-07T08:25:59.442Z,11.79
2017-04-07T08:26:59.772Z,11.83
2017-04-07T08:27:59.384Z,11.81
2017-04-07T08:28:59.732Z,11.86
2017-04-07T08:29:59.345Z,11.84
2017-04-07T08:30:59.622Z,11.81
2017-04-07T08:31:59.673Z,11.79
2017-04-07T08:32:59.283Z,11.75
2017-04-07T08:33:59.281Z,11.81
2017-04-07T08:34:59.542Z,11.81
2017-04-07T08:35:59.594Z,11.89
2017-04-07T08:36:59.221Z,11.95
2017-04-07T08:37:59.182Z,11.89
2017-04-07T08:38:59.473Z,11.98
2017-04-07T08:39:59.148Z,11.95
2017-04-07T08:40:58.822Z,12.02
2017-04-07T08:41:59.422Z,11.9
2017-04-07T08:42:59.392Z,11.98
2017-04-07T08:43:59.384Z,11.97
2017-04-07T08:44:59.061Z,11.98
2017-04-07T08:45:59.356Z,12.03
2017-04-07T08:46:59.012Z,12.1
2017-04-07T08:47:59.352Z,12.17
2017-04-07T08:48:58.971Z,12.28
2017-04-07T08:49:59.361Z,12.3
2017-04-07T08:50:58.963Z,12.31
2017-04-07T08:51:58.616Z,12.4
2017-04-07T08:52:59.213Z,12.43
2017-04-07T08:53:58.893Z,12.46
2017-04-07T08:54:58.866Z,12.49
2017-04-07T08:55:59.188Z,12.42
2017-04-07T08:56:59.156Z,12.49
2017-04-07T08:57:59.124Z,12.35
2017-04-07T08:58:59.098Z,12.39
2017-04-07T08:59:58.771Z,12.35
2017-04-07T09:00:58.747Z,12.42
2017-04-07T09:01:58.745Z,12.35
2017-04-07T09:02:59.032Z,12.34
2017-04-07T09:03:58.716Z,12.45
2017-04-07T09:04:58.381Z,12.48
2017-04-07T09:05:58.992Z,12.39
2017-04-07T09:06:58.996Z,12.48
2017-04-07T09:07:59.039Z,12.48
2017-04-07T09:08:58.602Z,12.48
2017-04-07T09:09:58.993Z,12.53
2017-04-07T09:10:58.574Z,12.64
2017-04-07T09:11:58.900Z,12.4
2017-04-07T09:12:58.526Z,12.55
2017-04-07T09:13:58.241Z,12.53
2017-04-07T09:14:58.483Z,12.58
2017-04-07T09:15:58.819Z,12.64
2017-04-07T09:16:58.447Z,12.74
2017-04-07T09:17:58.462Z,12.83
2017-04-07T09:18:58.721Z,12.83
2017-04-07T09:19:58.441Z,12.85
2017-04-07T09:20:58.383Z,12.82
2017-04-07T09:21:58.687Z,12.86
2017-04-07T09:22:58.701Z,13.01
2017-04-07T09:23:58.633Z,12.94
2017-04-07T09:24:58.300Z,13.06
2017-04-07T09:25:58.384Z,13.07
2017-04-07T09:26:58.634Z,13.06
2017-04-07T09:27:57.942Z,13.22
2017-04-07T09:28:58.603Z,13.23
2017-04-07T09:29:58.258Z,13.33
2017-04-07T09:30:58.582Z,13.31
2017-04-07T09:31:58.594Z,13.33
2017-04-07T09:32:57.964Z,13.29
2017-04-07T09:33:58.503Z,13.22
2017-04-07T09:34:58.178Z,13.23
2017-04-07T09:35:58.513Z,13.16
2017-04-07T09:36:58.456Z,13.31
2017-04-07T09:37:58.073Z,13.19
2017-04-07T09:38:58.373Z,13.11
2017-04-07T09:39:58.036Z,13.18
2017-04-07T09:40:58.013Z,13.11
2017-04-07T09:41:57.993Z,13.16
2017-04-07T09:42:58.333Z,13.08
2017-04-07T09:43:57.995Z,13
2017-04-07T09:44:58.246Z,13
2017-04-07T09:45:58.280Z,13.16
2017-04-07T09:46:57.908Z,13.16
2017-04-07T09:47:57.902Z,13.07
2017-04-07T09:48:58.214Z,13.1
2017-04-07T09:49:58.219Z,12.96
2017-04-07T09:50:57.847Z,12.97
2017-04-07T09:51:58.124Z,13.03
2017-04-07T09:52:58.163Z,13.11
2017-04-07T09:53:58.211Z,13.15
2017-04-07T09:54:57.772Z,13.06
2017-04-07T09:55:58.042Z,13.18
2017-04-07T09:56:57.725Z,13.21
2017-04-07T09:57:58.135Z,13.49
2017-04-07T09:58:57.999Z,13.81
2017-04-07T09:59:57.988Z,14.05
2017-04-07T10:00:57.651Z,14.32
2017-04-07T10:01:57.946Z,14.87
2017-04-07T10:02:57.994Z,15.31
2017-04-07T10:03:57.314Z,15.35
2017-04-07T10:04:58.034Z,15.64
2017-04-07T10:05:57.884Z,16.13
2017-04-07T10:06:57.881Z,16.24
2017-04-07T10:07:57.954Z,16.16
2017-04-07T10:08:57.846Z,16.5
2017-04-07T10:09:57.227Z,16.61
2017-04-07T10:10:57.193Z,16.71
2017-04-07T10:11:57.805Z,16.74
2017-04-07T10:12:57.774Z,16.94
2017-04-07T10:13:57.824Z,17.21
2017-04-07T10:14:57.769Z,17.51
2017-04-07T10:15:57.745Z,17.9
2017-04-07T10:16:57.114Z,18.15
2017-04-07T10:17:57.730Z,18.18
2017-04-07T10:18:57.404Z,18.25
2017-04-07T10:19:57.689Z,18.44
2017-04-07T10:20:57.365Z,18.65
2017-04-07T10:21:57.060Z,18.78
2017-04-07T10:22:57.666Z,18.7
2017-04-07T10:23:57.652Z,18.33
2017-04-07T10:24:57.322Z,18.33
2017-04-07T10:25:57.616Z,18.37
2017-04-07T10:26:57.615Z,18.55
2017-04-07T10:27:57.305Z,18.63
2017-04-07T10:28:57.264Z,18.66
2017-04-07T10:29:56.962Z,18.88
2017-04-07T10:30:57.549Z,18.85
2017-04-07T10:31:57.546Z,18.96
2017-04-07T10:32:57.527Z,18.82
2017-04-07T10:33:57.510Z,18.4
2017-04-07T10:34:57.503Z,18.14
2017-04-07T10:35:57.193Z,17.92
2017-04-07T10:36:57.477Z,17.86
2017-04-07T10:37:57.174Z,17.58
2017-04-07T10:38:57.459Z,17.49
2017-04-07T10:39:57.432Z,17.3
2017-04-07T10:40:57.431Z,17.09
2017-04-07T10:41:57.434Z,16.82
2017-04-07T10:42:57.395Z,17
2017-04-07T10:43:57.386Z,17.19
2017-04-07T10:44:57.375Z,17.11
2017-04-07T10:45:57.054Z,17.21
2017-04-07T10:46:57.344Z,17.55
2017-04-07T10:47:57.344Z,17.89
2017-04-07T10:48:57.314Z,18.25
2017-04-07T10:49:56.704Z,18.35
2017-04-07T10:50:57.298Z,18.55
2017-04-07T10:51:57.271Z,18.65
2017-04-07T10:52:56.964Z,18.6
2017-04-07T10:53:57.258Z,18.42
2017-04-07T10:54:56.633Z,18.15
2017-04-07T10:55:56.608Z,17.85
2017-04-07T10:56:57.209Z,17.82
2017-04-07T10:57:56.885Z,17.77
2017-04-07T10:58:56.863Z,17.6
2017-04-07T10:59:56.884Z,17.46
2017-04-07T11:00:57.461Z,17.6
2017-04-07T11:01:57.138Z,17.55
2017-04-07T11:02:56.835Z,17.7
2017-04-07T11:03:56.806Z,17.7
2017-04-07T11:04:57.207Z,17.51
2017-04-07T11:05:56.479Z,17.58
2017-04-07T11:06:57.077Z,17.68
2017-04-07T11:07:57.074Z,17.6
2017-04-07T11:08:56.734Z,17.65
2017-04-07T11:09:57.046Z,17.64
2017-04-07T11:10:57.022Z,17.65
2017-04-07T11:11:56.708Z,17.86
2017-04-07T11:12:57.078Z,17.83
2017-04-07T11:13:56.674Z,17.75
2017-04-07T11:14:57.068Z,17.95
2017-04-07T11:15:56.953Z,18.29
2017-04-07T11:16:56.724Z,18.3
2017-04-07T11:17:56.914Z,18.35
2017-04-07T11:18:56.930Z,18.38
2017-04-07T11:19:56.279Z,18.44
2017-04-07T11:20:56.604Z,18.67
2017-04-07T11:21:56.865Z,18.9
2017-04-07T11:22:56.857Z,18.84
2017-04-07T11:23:56.842Z,18.97
2017-04-07T11:24:56.823Z,19.3
2017-04-07T11:25:56.583Z,19.33
2017-04-07T11:26:56.500Z,19.18
2017-04-07T11:27:56.471Z,18.96
2017-04-07T11:28:56.774Z,18.65
2017-04-07T11:29:56.814Z,18.74
2017-04-07T11:30:56.799Z,18.73
2017-04-07T11:31:56.743Z,19.02
2017-04-07T11:32:56.731Z,18.85
2017-04-07T11:33:56.724Z,18.87
2017-04-07T11:34:56.384Z,18.78
2017-04-07T11:35:56.071Z,18.48
2017-04-07T11:36:56.673Z,18.37
2017-04-07T11:37:56.717Z,18.1
2017-04-07T11:38:56.646Z,18.25
2017-04-07T11:39:56.374Z,18.26
2017-04-07T11:40:56.668Z,18.3
2017-04-07T11:41:56.595Z,18.35
2017-04-07T11:42:56.582Z,18.29
2017-04-07T11:43:56.591Z,18.22
2017-04-07T11:44:56.574Z,18.42
2017-04-07T11:45:56.574Z,18.4
2017-04-07T11:46:56.532Z,18.37
2017-04-07T11:47:56.512Z,18.32
2017-04-07T11:48:56.504Z,18.14
2017-04-07T11:49:56.504Z,17.85
2017-04-07T11:50:56.202Z,17.78
2017-04-07T11:51:55.861Z,17.68
2017-04-07T11:52:56.154Z,17.74
2017-04-07T11:53:55.927Z,17.98
2017-04-07T11:54:56.421Z,17.86
2017-04-07T11:55:56.414Z,17.86
2017-04-07T11:56:56.395Z,17.67
2017-04-07T11:57:56.071Z,17.6
2017-04-07T11:58:55.753Z,17.52
2017-04-07T11:59:56.153Z,17.34
2017-04-07T12:00:56.342Z,17.16
2017-04-07T12:01:56.341Z,16.91
2017-04-07T12:02:56.322Z,16.75
2017-04-07T12:03:55.777Z,16.6
2017-04-07T12:04:56.284Z,16.48
2017-04-07T12:05:56.263Z,16.53
2017-04-07T12:06:56.268Z,16.5
2017-04-07T12:07:55.942Z,16.56
2017-04-07T12:08:56.223Z,16.54
2017-04-07T12:09:55.604Z,16.6
2017-04-07T12:10:55.888Z,16.58
2017-04-07T12:11:55.586Z,16.54
2017-04-07T12:12:55.858Z,16.58
2017-04-07T12:13:55.841Z,16.36
2017-04-07T12:14:56.151Z,16.27
2017-04-07T12:15:56.113Z,16.31
2017-04-07T12:16:55.860Z,16.31
2017-04-07T12:17:55.791Z,16.36
2017-04-07T12:18:55.784Z,16.45
2017-04-07T12:19:55.769Z,16.63
2017-04-07T12:20:56.051Z,16.43
2017-04-07T12:21:56.023Z,16.35
2017-04-07T12:22:56.013Z,16.27
2017-04-07T12:23:55.991Z,16.34
2017-04-07T12:24:55.947Z,16.35
2017-04-07T12:25:55.658Z,16.43
2017-04-07T12:26:55.962Z,16.72
2017-04-07T12:27:55.628Z,16.93
2017-04-07T12:28:55.627Z,17.15
2017-04-07T12:29:55.916Z,17.37
2017-04-07T12:30:55.910Z,17.44
2017-04-07T12:31:55.562Z,17.6
2017-04-07T12:32:55.597Z,17.68
2017-04-07T12:33:55.552Z,17.77
2017-04-07T12:34:55.832Z,17.75
2017-04-07T12:35:55.521Z,17.67
2017-04-07T12:36:55.519Z,17.51
2017-04-07T12:37:55.890Z,17.56
2017-04-07T12:38:55.461Z,17.44
2017-04-07T12:39:55.452Z,17.27
2017-04-07T12:40:55.441Z,17.14
2017-04-07T12:41:55.729Z,17.12
2017-04-07T12:42:55.413Z,17.18
2017-04-07T12:43:55.701Z,17.3
2017-04-07T12:44:55.386Z,17.46
2017-04-07T12:45:55.670Z,17.65
2017-04-07T12:46:55.673Z,17.78
2017-04-07T12:47:55.323Z,17.49
2017-04-07T12:48:55.634Z,17.49
2017-04-07T12:49:55.622Z,17.4
2017-04-07T12:50:55.605Z,17.51
2017-04-07T12:51:55.276Z,17.49
2017-04-07T12:52:55.601Z,17.46
2017-04-07T12:53:55.594Z,17.37
2017-04-07T12:54:55.541Z,17.39
2017-04-07T12:55:55.522Z,17.3
2017-04-07T12:56:55.509Z,17.31
2017-04-07T12:57:55.502Z,17.37
2017-04-07T12:58:55.180Z,17.36
2017-04-07T12:59:55.161Z,17.19
2017-04-07T13:00:55.445Z,17.06
2017-04-07T13:01:55.462Z,16.94
2017-04-07T13:02:55.115Z,16.97
2017-04-07T13:03:55.423Z,17.01
2017-04-07T13:04:55.092Z,16.82
2017-04-07T13:05:55.383Z,16.66